createdAt,value
2018-10-21T00:02:03.274Z,42.93
2018-10-21T00:04:07.510Z,38.47
2018-10-21T00:06:11.779Z,41.00
2018-10-21T00:08:16.015Z,46.43
2018-10-21T00:10:20.220Z,44.57
2018-10-21T00:12:24.445Z,43.40
2018-10-21T00:14:28.721Z,38.43
2018-10-21T00:16:33.847Z,39.47
2018-10-21T00:18:38.076Z,46.60
2018-10-21T00:20:42.367Z,43.67
2018-10-21T00:22:46.556Z,43.87
2018-10-21T00:24:50.751Z,36.90
2018-10-21T00:26:54.998Z,38.10
2018-10-21T00:28:59.193Z,43.33
2018-10-21T00:31:03.378Z,47.07
2018-10-21T00:33:07.705Z,40.33
2018-10-21T00:35:11.866Z,40.83
2018-10-21T00:37:16.046Z,38.73
2018-10-21T00:39:20.275Z,39.50
2018-10-21T00:41:24.562Z,42.90
2018-10-21T00:43:28.783Z,43.83
2018-10-21T00:45:32.952Z,41.43
2018-10-21T00:47:37.255Z,36.97
2018-10-21T00:49:41.419Z,44.20
2018-10-21T00:51:45.681Z,40.83
2018-10-21T00:53:49.878Z,42.33
2018-10-21T00:55:54.215Z,41.43
2018-10-21T00:57:58.395Z,42.80
2018-10-21T01:00:02.667Z,42.73
2018-10-21T01:02:07.463Z,43.30
2018-10-21T01:04:11.775Z,36.10
2018-10-21T01:06:15.953Z,46.73
2018-10-21T01:08:20.125Z,42.57
2018-10-21T01:10:24.362Z,45.03
2018-10-21T01:12:28.581Z,49.23
2018-10-21T01:14:32.837Z,44.43
2018-10-21T01:16:37.024Z,44.53
2018-10-21T01:18:41.283Z,47.60
2018-10-21T01:20:45.563Z,42.83
2018-10-21T01:22:49.790Z,38.20
2018-10-21T01:24:54.100Z,46.73
2018-10-21T01:26:58.386Z,48.07
2018-10-21T01:29:02.555Z,41.50
2018-10-21T01:31:07.049Z,48.53
2018-10-21T01:33:11.336Z,47.17
2018-10-21T01:35:15.501Z,46.73
2018-10-21T01:37:19.733Z,43.03
2018-10-21T01:40:31.140Z,45.80
2018-10-21T01:42:35.338Z,42.00
2018-10-21T01:44:39.504Z,43.67
2018-10-21T01:46:58.855Z,45.53
2018-10-21T01:49:17.563Z,53.53
2018-10-21T01:51:39.496Z,45.53
2018-10-21T01:54:01.532Z,50.67
2018-10-21T01:56:23.407Z,49.60
2018-10-21T01:58:42.347Z,49.97
2018-10-21T02:01:05.866Z,50.13
2018-10-21T02:03:25.533Z,48.97
2018-10-21T02:05:46.134Z,45.87
2018-10-21T02:08:08.421Z,58.23
2018-10-21T02:10:27.228Z,54.07
2018-10-21T02:12:46.028Z,52.07
2018-10-21T02:14:51.038Z,50.47
2018-10-21T02:16:55.195Z,41.73
2018-10-21T02:18:59.512Z,45.40
2018-10-21T02:21:03.749Z,48.40
2018-10-21T02:23:07.921Z,43.47
2018-10-21T02:25:12.191Z,42.27
2018-10-21T02:27:16.612Z,48.77
2018-10-21T02:29:20.782Z,45.70
2018-10-21T02:31:25.051Z,50.73
2018-10-21T02:33:29.556Z,36.70
2018-10-21T02:35:33.617Z,45.77
2018-10-21T02:37:38.455Z,43.07
2018-10-21T02:39:43.570Z,46.93
2018-10-21T02:41:58.432Z,53.47
2018-10-21T02:44:03.540Z,42.43
2018-10-21T02:46:08.222Z,44.17
2018-10-21T02:48:13.227Z,52.07
2018-10-21T02:50:17.684Z,52.07
2018-10-21T02:52:22.588Z,43.13
2018-10-21T02:54:29.439Z,45.97
2018-10-21T02:56:33.791Z,40.10
2018-10-21T02:58:38.726Z,49.80
2018-10-21T03:00:43.628Z,49.33
2018-10-21T03:02:48.141Z,50.97
2018-10-21T03:04:52.576Z,43.67
2018-10-21T03:06:56.864Z,46.73
2018-10-21T03:09:02.122Z,47.97
2018-10-21T03:11:06.434Z,45.20
2018-10-21T03:13:10.652Z,46.53
2018-10-21T03:15:14.913Z,46.80
2018-10-21T03:17:19.062Z,43.43
2018-10-21T03:19:23.348Z,40.93
2018-10-21T03:21:27.529Z,51.33
2018-10-21T03:23:32.243Z,48.77
2018-10-21T03:25:36.471Z,43.70
2018-10-21T03:27:40.712Z,53.53
2018-10-21T03:29:45.871Z,50.93
2018-10-21T03:31:51.351Z,52.10
2018-10-21T03:33:55.769Z,45.97
2018-10-21T03:35:59.936Z,50.53
2018-10-21T03:38:04.123Z,45.30
2018-10-21T03:40:08.502Z,56.03
2018-10-21T03:42:12.720Z,51.33
2018-10-21T03:44:16.906Z,47.00
2018-10-21T03:46:21.171Z,53.40
2018-10-21T03:48:25.408Z,50.17
2018-10-21T03:50:29.627Z,50.90
2018-10-21T03:52:33.821Z,52.23
2018-10-21T03:54:40.888Z,50.00
2018-10-21T03:56:45.129Z,51.60
2018-10-21T03:58:49.311Z,50.60
2018-10-21T04:00:53.726Z,51.87
2018-10-21T04:02:58.160Z,47.83
2018-10-21T04:05:04.974Z,60.47
2018-10-21T04:07:09.350Z,45.00
2018-10-21T04:09:13.665Z,43.77
2018-10-21T04:11:18.591Z,48.13
2018-10-21T04:13:23.299Z,48.07
2018-10-21T04:15:28.065Z,45.90
2018-10-21T04:17:32.444Z,52.27
2018-10-21T04:19:36.846Z,51.57
2018-10-21T04:21:41.278Z,47.70
2018-10-21T04:23:45.820Z,39.60
2018-10-21T04:25:51.440Z,53.73
2018-10-21T04:27:56.557Z,45.33
2018-10-21T04:30:01.721Z,44.33
2018-10-21T04:32:06.077Z,50.67
2018-10-21T04:34:11.015Z,52.03
2018-10-21T04:36:17.726Z,42.17
2018-10-21T04:38:33.758Z,51.07
2018-10-21T04:40:38.434Z,50.90
2018-10-21T04:42:43.415Z,48.47
2018-10-21T04:44:47.688Z,47.20
2018-10-21T04:46:51.976Z,50.07
2018-10-21T04:48:57.539Z,53.13
2018-10-21T04:51:02.772Z,43.20
2018-10-21T04:53:08.403Z,51.93
2018-10-21T04:55:16.009Z,55.70
2018-10-21T04:57:20.461Z,55.97
2018-10-21T04:59:24.711Z,53.13
2018-10-21T05:01:28.938Z,44.97
2018-10-21T05:03:33.131Z,51.33
2018-10-21T05:05:37.310Z,45.73
2018-10-21T05:07:42.620Z,40.77
2018-10-21T05:09:47.658Z,48.30
2018-10-21T05:11:52.251Z,53.10
2018-10-21T05:13:57.159Z,43.03
2018-10-21T05:16:01.545Z,58.30
2018-10-21T05:18:06.659Z,48.50
2018-10-21T05:20:12.551Z,28.93
2018-10-21T05:22:17.234Z,46.87
2018-10-21T05:24:21.511Z,33.57
2018-10-21T05:26:25.765Z,43.07
2018-10-21T05:28:31.731Z,43.17
2018-10-21T05:30:36.669Z,50.30
2018-10-21T05:32:42.359Z,45.63
2018-10-21T05:34:47.030Z,48.20
2018-10-21T05:36:51.814Z,45.53
2018-10-21T05:38:56.927Z,48.10
2018-10-21T05:41:01.194Z,29.20
2018-10-21T05:43:06.163Z,39.97
2018-10-21T05:45:11.392Z,30.03
2018-10-21T05:47:15.741Z,43.70
2018-10-21T05:49:29.054Z,32.93
2018-10-21T05:51:33.672Z,41.93
2018-10-21T05:53:39.165Z,43.33
2018-10-21T05:55:44.418Z,48.57
2018-10-21T05:57:48.928Z,48.57
2018-10-21T05:59:54.406Z,48.47
2018-10-21T06:01:59.303Z,45.30
2018-10-21T06:04:04.193Z,51.50
2018-10-21T06:06:08.779Z,50.53
2018-10-21T06:08:13.669Z,44.30
2018-10-21T06:10:18.545Z,50.97
2018-10-21T06:12:22.917Z,42.03
2018-10-21T06:14:27.145Z,45.07
2018-10-21T06:16:35.448Z,48.43
2018-10-21T06:18:39.698Z,50.27
2018-10-21T06:20:49.154Z,47.53
2018-10-21T06:22:54.238Z,49.27
2018-10-21T06:24:58.409Z,50.17
2018-10-21T06:27:02.615Z,51.73
2018-10-21T06:29:06.826Z,48.17
2018-10-21T06:31:11.111Z,50.60
2018-10-21T06:33:15.265Z,50.57
2018-10-21T06:35:19.479Z,40.77
2018-10-21T06:37:23.768Z,44.70
2018-10-21T06:39:27.954Z,47.83
2018-10-21T06:41:32.171Z,50.03
2018-10-21T06:43:36.389Z,52.37
2018-10-21T06:45:40.661Z,46.73
2018-10-21T06:47:44.785Z,39.60
2018-10-21T06:49:48.926Z,46.53
2018-10-21T06:51:53.135Z,48.07
2018-10-21T06:53:57.394Z,28.40
2018-10-21T06:56:01.654Z,29.17
2018-10-21T06:58:06.240Z,31.57
2018-10-21T07:00:10.742Z,26.73
2018-10-21T07:02:14.958Z,25.70
2018-10-21T07:04:19.344Z,34.50
2018-10-21T07:06:24.714Z,43.13
2018-10-21T07:08:28.976Z,29.50
2018-10-21T07:10:33.183Z,49.73
2018-10-21T07:12:37.362Z,34.10
2018-10-21T07:14:41.611Z,50.70
2018-10-21T07:16:45.880Z,40.07
2018-10-21T07:18:50.423Z,50.50
2018-10-21T07:20:54.659Z,54.10
2018-10-21T07:22:58.858Z,35.97
2018-10-21T07:25:03.109Z,49.07
2018-10-21T07:27:07.403Z,50.93
2018-10-21T07:29:11.630Z,36.43
2018-10-21T07:31:15.953Z,50.60
2018-10-21T07:33:20.143Z,52.07
2018-10-21T07:35:24.302Z,45.80
2018-10-21T07:37:28.683Z,51.10
2018-10-21T07:39:32.865Z,24.53
2018-10-21T07:41:37.148Z,31.77
2018-10-21T07:43:41.351Z,36.90
2018-10-21T07:45:45.622Z,26.53
2018-10-21T07:47:49.820Z,44.43
2018-10-21T07:49:54.077Z,30.07
2018-10-21T07:51:58.290Z,48.73
2018-10-21T07:54:02.414Z,54.57
2018-10-21T07:56:06.683Z,46.13
2018-10-21T07:58:11.183Z,51.77
2018-10-21T08:00:15.346Z,38.80
2018-10-21T08:02:19.651Z,51.03
2018-10-21T08:04:23.912Z,42.60
2018-10-21T08:06:39.064Z,52.57
2018-10-21T08:08:43.362Z,32.03
2018-10-21T08:10:47.653Z,44.70
2018-10-21T08:12:51.909Z,37.23
2018-10-21T08:14:56.115Z,29.63
2018-10-21T08:17:00.327Z,29.33
2018-10-21T08:19:04.599Z,43.73
2018-10-21T08:21:08.779Z,27.93
2018-10-21T08:23:14.123Z,44.30
2018-10-21T08:25:18.415Z,33.40
2018-10-21T08:27:22.693Z,24.40
2018-10-21T08:29:26.888Z,34.77
2018-10-21T08:31:31.127Z,45.30
2018-10-21T08:33:35.347Z,39.60
2018-10-21T08:35:39.541Z,43.40
2018-10-21T08:37:43.822Z,24.03
2018-10-21T08:39:48.215Z,40.80
2018-10-21T08:41:52.420Z,33.30
2018-10-21T08:43:56.735Z,48.20
2018-10-21T08:46:00.989Z,51.60
2018-10-21T08:48:05.260Z,35.43
2018-10-21T08:50:09.526Z,44.90
2018-10-21T08:52:13.743Z,48.30
2018-10-21T08:54:17.959Z,28.87
2018-10-21T08:56:22.210Z,39.90
2018-10-21T08:58:26.433Z,35.83
2018-10-21T09:00:30.713Z,30.57
2018-10-21T09:02:34.909Z,47.23
2018-10-21T09:04:39.182Z,43.87
2018-10-21T09:06:43.455Z,29.90
2018-10-21T09:08:47.646Z,33.40
2018-10-21T09:10:51.940Z,41.03
2018-10-21T09:12:56.132Z,37.47
2018-10-21T09:15:00.411Z,42.03
2018-10-21T09:17:04.652Z,40.93
2018-10-21T09:19:08.857Z,48.83
2018-10-21T09:21:13.631Z,38.57
2018-10-21T09:23:19.841Z,40.60
2018-10-21T09:25:25.026Z,39.97
2018-10-21T09:27:29.242Z,46.23
2018-10-21T09:29:34.429Z,34.40
2018-10-21T09:31:39.678Z,38.10
2018-10-21T09:33:46.206Z,46.83
2018-10-21T09:35:50.453Z,43.17
2018-10-21T09:37:54.772Z,43.90
2018-10-21T09:39:59.957Z,36.90
2018-10-21T09:42:04.593Z,39.07
2018-10-21T09:44:11.382Z,41.70
2018-10-21T09:46:16.392Z,32.83
2018-10-21T09:48:21.447Z,36.97
2018-10-21T09:50:25.727Z,35.43
2018-10-21T09:52:31.298Z,37.23
2018-10-21T09:54:35.775Z,36.37
2018-10-21T09:56:39.977Z,36.93
2018-10-21T09:58:44.263Z,34.80
2018-10-21T10:00:53.599Z,36.13
2018-10-21T10:03:03.808Z,35.47
2018-10-21T10:05:08.507Z,35.37
2018-10-21T10:07:12.807Z,30.97
2018-10-21T10:09:16.989Z,30.73
2018-10-21T10:11:22.758Z,28.13
2018-10-21T10:13:27.018Z,31.57
2018-10-21T10:15:31.310Z,29.93
2018-10-21T10:17:35.568Z,36.37
2018-10-21T10:19:39.738Z,32.20
2018-10-21T10:21:43.931Z,30.87
2018-10-21T10:23:48.148Z,26.53
2018-10-21T10:25:52.443Z,30.90
2018-10-21T10:27:56.626Z,28.00
2018-10-21T10:30:00.801Z,35.63
2018-10-21T10:32:05.163Z,29.83
2018-10-21T10:34:09.445Z,31.53
2018-10-21T10:36:13.647Z,32.87
2018-10-21T10:38:17.899Z,34.10
2018-10-21T10:40:22.239Z,26.63
2018-10-21T10:42:26.422Z,24.17
2018-10-21T10:44:30.684Z,29.20
2018-10-21T10:46:34.916Z,25.37
2018-10-21T10:48:39.188Z,31.47
2018-10-21T10:50:43.426Z,24.37
2018-10-21T10:52:53.920Z,36.53
2018-10-21T10:54:58.149Z,40.47
2018-10-21T10:57:02.362Z,29.83
2018-10-21T10:59:06.571Z,25.53
2018-10-21T11:01:10.815Z,30.50
2018-10-21T11:03:15.331Z,35.80
2018-10-21T11:05:19.591Z,28.87
2018-10-21T11:07:23.815Z,27.13
2018-10-21T11:09:27.989Z,33.37
2018-10-21T11:11:32.211Z,30.03
2018-10-21T11:13:36.437Z,23.17
2018-10-21T11:15:40.654Z,29.80
2018-10-21T11:17:44.777Z,32.60
2018-10-21T11:19:48.987Z,30.13
2018-10-21T11:21:53.362Z,24.07
2018-10-21T11:23:57.552Z,27.33
2018-10-21T11:26:01.979Z,31.10
2018-10-21T11:28:06.600Z,22.97
2018-10-21T11:30:10.768Z,21.07
2018-10-21T11:32:14.954Z,25.77
2018-10-21T11:34:19.095Z,20.33
2018-10-21T11:36:23.342Z,29.67
2018-10-21T11:38:27.493Z,44.23
2018-10-21T11:40:31.716Z,28.80
2018-10-21T11:42:35.888Z,22.57
2018-10-21T11:44:40.101Z,22.03
2018-10-21T11:46:44.293Z,33.17
2018-10-21T11:48:48.489Z,25.63
2018-10-21T11:50:52.766Z,18.60
2018-10-21T11:52:56.949Z,18.30
2018-10-21T11:55:01.210Z,24.23
2018-10-21T11:57:17.781Z,31.57
2018-10-21T11:59:22.703Z,29.97
2018-10-21T12:01:28.381Z,26.57
2018-10-21T12:03:33.882Z,30.17
2018-10-21T12:05:38.375Z,25.17
2018-10-21T12:07:43.178Z,20.80
2018-10-21T12:09:47.457Z,27.70
2018-10-21T12:11:51.732Z,35.93
2018-10-21T12:13:56.055Z,38.33
2018-10-21T12:16:00.181Z,33.30
2018-10-21T12:18:04.607Z,35.00
2018-10-21T12:20:08.920Z,31.17
2018-10-21T12:22:13.251Z,29.70
2018-10-21T12:24:17.476Z,20.70
2018-10-21T12:26:21.847Z,31.90
2018-10-21T12:28:26.230Z,30.27
2018-10-21T12:30:30.477Z,24.23
2018-10-21T12:32:34.687Z,19.10
2018-10-21T12:34:38.980Z,28.53
2018-10-21T12:36:43.262Z,24.40
2018-10-21T12:38:47.566Z,24.97
2018-10-21T12:40:51.854Z,26.30
2018-10-21T12:42:56.172Z,23.67
2018-10-21T12:45:00.454Z,27.03
2018-10-21T12:47:04.819Z,26.37
2018-10-21T12:49:09.013Z,26.90
2018-10-21T12:51:13.297Z,20.77
2018-10-21T12:53:17.481Z,30.77
2018-10-21T12:55:21.761Z,25.07
2018-10-21T12:57:26.085Z,23.07
2018-10-21T12:59:30.300Z,25.30
2018-10-21T13:01:37.492Z,23.17
2018-10-21T13:03:41.761Z,28.30
2018-10-21T13:05:46.001Z,25.40
2018-10-21T13:07:50.460Z,30.00
2018-10-21T13:09:54.758Z,25.37
2018-10-21T13:11:59.056Z,22.30
2018-10-21T13:14:03.384Z,21.83
2018-10-21T13:16:07.909Z,25.03
2018-10-21T13:18:12.143Z,24.60
2018-10-21T13:20:17.047Z,27.67
2018-10-21T13:22:32.272Z,20.90
2018-10-21T13:24:38.681Z,24.87
2018-10-21T13:26:42.968Z,20.23
2018-10-21T13:28:47.563Z,17.07
2018-10-21T13:30:52.409Z,21.53
2018-10-21T13:32:57.446Z,19.70
2018-10-21T13:35:02.720Z,24.33
2018-10-21T13:37:07.954Z,18.87
2018-10-21T13:39:13.918Z,23.60
2018-10-21T13:41:18.148Z,19.53
2018-10-21T13:43:22.459Z,18.93
2018-10-21T13:45:27.239Z,25.27
2018-10-21T13:47:33.222Z,22.93
2018-10-21T13:49:37.705Z,17.43
2018-10-21T13:51:42.179Z,24.37
2018-10-21T13:53:46.844Z,21.93
2018-10-21T13:55:51.514Z,16.80
2018-10-21T13:57:56.442Z,16.20
2018-10-21T14:00:00.652Z,13.37
2018-10-21T14:02:05.071Z,18.10
2018-10-21T14:04:09.274Z,20.67
2018-10-21T14:06:14.621Z,23.73
2018-10-21T14:08:18.883Z,15.50
2018-10-21T14:10:23.056Z,18.53
2018-10-21T14:12:27.253Z,17.93
2018-10-21T14:14:31.474Z,22.80
2018-10-21T14:16:36.042Z,18.37
2018-10-21T14:18:40.435Z,17.73
2018-10-21T14:20:44.658Z,17.27
2018-10-21T14:22:48.913Z,17.67
2018-10-21T14:24:53.153Z,17.10
2018-10-21T14:26:57.334Z,13.83
2018-10-21T14:29:01.555Z,15.77
2018-10-21T14:31:06.193Z,17.37
2018-10-21T14:33:10.388Z,21.70
2018-10-21T14:35:14.624Z,23.27
2018-10-21T14:37:18.835Z,13.40
2018-10-21T14:39:23.056Z,17.37
2018-10-21T14:41:27.360Z,16.40
2018-10-21T14:43:31.614Z,15.23
2018-10-21T14:45:35.787Z,16.00
2018-10-21T14:47:40.424Z,13.37
2018-10-21T14:49:44.687Z,17.17
2018-10-21T14:51:48.910Z,12.73
2018-10-21T14:53:53.136Z,19.53
2018-10-21T14:55:57.344Z,14.87
2018-10-21T14:58:01.563Z,13.83
2018-10-21T15:00:08.828Z,18.73
2018-10-21T15:02:13.248Z,12.30
2018-10-21T15:04:17.482Z,15.60
2018-10-21T15:06:21.643Z,15.73
2018-10-21T15:08:25.854Z,19.37
2018-10-21T15:10:30.091Z,14.33
2018-10-21T15:12:34.369Z,15.50
2018-10-21T15:14:38.503Z,13.93
2018-10-21T15:16:42.668Z,16.50
2018-10-21T15:18:46.933Z,12.40
2018-10-21T15:20:51.213Z,15.00
2018-10-21T15:22:55.977Z,14.70
2018-10-21T15:25:00.238Z,19.73
2018-10-21T15:27:04.515Z,13.27
2018-10-21T15:29:08.974Z,15.77
2018-10-21T15:31:13.174Z,17.67
2018-10-21T15:33:17.476Z,15.53
2018-10-21T15:35:21.754Z,18.00
2018-10-21T15:37:25.954Z,16.40
2018-10-21T15:39:30.239Z,16.17
2018-10-21T15:41:34.414Z,15.80
2018-10-21T15:43:38.579Z,19.10
2018-10-21T15:45:42.803Z,17.70
2018-10-21T15:47:47.015Z,17.70
2018-10-21T15:49:51.266Z,16.40
2018-10-21T15:51:55.649Z,18.70
2018-10-21T15:54:00.201Z,19.77
2018-10-21T15:56:04.454Z,16.17
2018-10-21T15:58:08.745Z,18.70
2018-10-21T16:00:13.755Z,18.83
2018-10-21T16:02:18.084Z,19.67
2018-10-21T16:04:22.446Z,19.10
2018-10-21T16:06:26.654Z,13.70
2018-10-21T16:08:30.858Z,16.83
2018-10-21T16:10:35.195Z,21.17
2018-10-21T16:12:39.549Z,14.43
2018-10-21T16:14:43.750Z,18.43
2018-10-21T16:16:47.950Z,17.00
2018-10-21T16:18:52.178Z,19.77
2018-10-21T16:20:56.331Z,12.67
2018-10-21T16:23:00.557Z,24.50
2018-10-21T16:25:04.848Z,10.30
2018-10-21T16:27:09.101Z,25.43
2018-10-21T16:29:13.316Z,18.80
2018-10-21T16:31:17.519Z,21.07
2018-10-21T16:33:21.770Z,18.80
2018-10-21T16:35:26.266Z,14.03
2018-10-21T16:37:30.550Z,23.73
2018-10-21T16:39:34.735Z,23.40
2018-10-21T16:41:38.938Z,20.67
2018-10-21T16:43:43.309Z,19.97
2018-10-21T16:45:47.619Z,17.27
2018-10-21T16:47:51.842Z,16.10
2018-10-21T16:49:55.998Z,20.57
2018-10-21T16:52:00.239Z,25.37
2018-10-21T16:54:04.639Z,15.67
2018-10-21T16:56:08.879Z,19.80
2018-10-21T16:58:13.114Z,23.20
2018-10-21T17:00:18.753Z,16.40
2018-10-21T17:02:22.900Z,16.40
2018-10-21T17:04:27.142Z,20.03
2018-10-21T17:06:31.384Z,19.20
2018-10-21T17:08:35.626Z,17.23
2018-10-21T17:10:40.123Z,19.33
2018-10-21T17:12:44.147Z,23.57
2018-10-21T17:14:48.426Z,23.17
2018-10-21T17:16:52.694Z,21.00
2018-10-21T17:18:56.925Z,20.23
2018-10-21T17:21:01.193Z,20.93
2018-10-21T17:23:06.238Z,22.50
2018-10-21T17:25:11.044Z,17.50
2018-10-21T17:27:15.189Z,19.17
2018-10-21T17:29:19.439Z,22.10
2018-10-21T17:31:23.623Z,24.00
2018-10-21T17:33:27.889Z,22.13
2018-10-21T17:35:32.105Z,19.03
2018-10-21T17:37:36.307Z,18.33
2018-10-21T17:39:40.624Z,19.70
2018-10-21T17:41:44.932Z,17.57
2018-10-21T17:43:49.183Z,19.40
2018-10-21T17:45:53.503Z,23.47
2018-10-21T17:47:57.755Z,16.50
2018-10-21T17:50:01.978Z,19.00
2018-10-21T17:52:06.331Z,18.03
2018-10-21T17:54:10.473Z,18.03
2018-10-21T17:56:14.654Z,20.80
2018-10-21T17:58:18.908Z,16.97
2018-10-21T18:00:23.221Z,17.93
2018-10-21T18:02:27.480Z,19.93
2018-10-21T18:04:31.718Z,19.90
2018-10-21T18:06:35.939Z,23.23
2018-10-21T18:08:40.137Z,21.87
2018-10-21T18:10:45.237Z,19.70
2018-10-21T18:12:49.517Z,20.00
2018-10-21T18:14:53.761Z,16.13
2018-10-21T18:16:58.015Z,19.43
2018-10-21T18:19:02.496Z,19.07
2018-10-21T18:21:06.859Z,20.00
2018-10-21T18:23:11.085Z,15.93
2018-10-21T18:25:15.408Z,17.33
2018-10-21T18:27:19.659Z,19.40
2018-10-21T18:29:23.915Z,19.53
2018-10-21T18:31:28.133Z,15.90
2018-10-21T18:33:32.359Z,17.37
2018-10-21T18:35:36.796Z,18.97
2018-10-21T18:37:41.006Z,18.43
2018-10-21T18:39:45.190Z,21.77
2018-10-21T18:41:49.512Z,18.63
2018-10-21T18:43:53.767Z,17.13
2018-10-21T18:45:58.015Z,21.40
2018-10-21T18:48:02.209Z,20.20
2018-10-21T18:50:08.691Z,21.40
2018-10-21T18:52:13.010Z,24.93
2018-10-21T18:54:17.144Z,19.80
2018-10-21T18:56:21.419Z,17.57
2018-10-21T18:58:25.737Z,17.53
2018-10-21T19:00:29.937Z,16.13
2018-10-21T19:02:34.132Z,20.97
2018-10-21T19:04:38.530Z,24.63
2018-10-21T19:06:42.856Z,22.60
2018-10-21T19:08:47.047Z,23.33
2018-10-21T19:10:51.199Z,22.20
2018-10-21T19:13:00.054Z,22.07
2018-10-21T19:14:59.664Z,25.40
2018-10-21T19:17:03.884Z,21.57
2018-10-21T19:19:08.375Z,22.97
2018-10-21T19:21:12.502Z,22.27
2018-10-21T19:23:16.918Z,21.53
2018-10-21T19:25:21.120Z,24.63
2018-10-21T19:27:25.335Z,23.67
2018-10-21T19:29:29.662Z,25.37
2018-10-21T19:31:33.894Z,26.37
2018-10-21T19:33:38.162Z,25.57
2018-10-21T19:35:42.506Z,21.73
2018-10-21T19:37:46.692Z,22.73
2018-10-21T19:39:50.877Z,23.17
2018-10-21T19:41:55.211Z,20.97
2018-10-21T19:43:59.423Z,10.23
2018-10-21T19:46:03.761Z,10.37
2018-10-21T19:48:07.993Z,24.67
2018-10-21T19:50:13.415Z,23.17
2018-10-21T19:52:17.589Z,21.87
2018-10-21T19:54:21.882Z,25.80
2018-10-21T19:56:26.148Z,22.67
2018-10-21T19:58:30.461Z,20.40
2018-10-21T20:00:34.610Z,22.13
2018-10-21T20:02:38.844Z,23.53
2018-10-21T20:04:43.064Z,21.33
2018-10-21T20:06:47.278Z,19.63
2018-10-21T20:08:51.564Z,20.53
2018-10-21T20:10:55.738Z,28.00
2018-10-21T20:12:59.987Z,25.90
2018-10-21T20:15:04.345Z,23.83
2018-10-21T20:17:08.593Z,26.50
2018-10-21T20:19:12.861Z,25.27
2018-10-21T20:21:16.994Z,23.37
2018-10-21T20:23:22.031Z,24.40
2018-10-21T20:25:26.332Z,27.43
2018-10-21T20:27:30.518Z,26.90
2018-10-21T20:29:34.793Z,25.80
2018-10-21T20:31:39.092Z,24.97
2018-10-21T20:33:43.568Z,27.17
2018-10-21T20:35:47.860Z,23.07
2018-10-21T20:37:52.067Z,20.90
2018-10-21T20:39:56.247Z,19.57
2018-10-21T20:42:00.509Z,28.97
2018-10-21T20:44:04.717Z,18.00
2018-10-21T20:46:08.977Z,17.23
2018-10-21T20:48:13.413Z,19.90
2018-10-21T20:50:17.544Z,25.53
2018-10-21T20:52:21.732Z,32.27
2018-10-21T20:54:30.039Z,23.77
2018-10-21T20:56:34.206Z,25.70
2018-10-21T20:58:38.899Z,26.87
2018-10-21T21:00:43.115Z,32.10
2018-10-21T21:02:49.672Z,27.23
2018-10-21T21:04:53.897Z,26.50
2018-10-21T21:06:58.047Z,29.03
2018-10-21T21:09:03.638Z,27.70
2018-10-21T21:11:08.431Z,30.63
2018-10-21T21:13:12.717Z,28.13
2018-10-21T21:15:16.937Z,27.20
2018-10-21T21:17:22.129Z,29.20
2018-10-21T21:19:26.349Z,28.43
2018-10-21T21:21:32.811Z,27.17
2018-10-21T21:23:37.004Z,33.17
2018-10-21T21:25:41.944Z,26.30
2018-10-21T21:27:46.203Z,27.87
2018-10-21T21:29:50.426Z,28.73
2018-10-21T21:31:54.608Z,28.27
2018-10-21T21:33:58.825Z,27.90
2018-10-21T21:36:03.081Z,28.57
2018-10-21T21:38:07.275Z,23.80
2018-10-21T21:40:11.553Z,28.63
2018-10-21T21:42:15.814Z,28.20
2018-10-21T21:44:20.023Z,27.83
2018-10-21T21:46:24.289Z,27.20
2018-10-21T21:48:28.478Z,29.03
2018-10-21T21:50:32.692Z,32.57
2018-10-21T21:52:36.974Z,31.83
2018-10-21T21:54:41.147Z,25.13
2018-10-21T21:56:46.119Z,21.13
2018-10-21T21:58:50.341Z,36.43
2018-10-21T22:00:54.602Z,29.87
2018-10-21T22:02:58.763Z,20.97
2018-10-21T22:05:02.991Z,32.50
2018-10-21T22:07:07.304Z,24.97
2018-10-21T22:09:13.010Z,34.30
2018-10-21T22:11:17.288Z,27.90
2018-10-21T22:13:21.477Z,34.47
2018-10-21T22:15:25.731Z,27.03
2018-10-21T22:17:29.904Z,30.60
2018-10-21T22:19:34.144Z,31.90
2018-10-21T22:21:39.110Z,33.13
2018-10-21T22:23:43.428Z,25.13
2018-10-21T22:25:47.651Z,20.33
2018-10-21T22:27:51.849Z,28.67
2018-10-21T22:29:56.200Z,20.40
2018-10-21T22:32:00.405Z,19.37
2018-10-21T22:34:04.715Z,34.83
2018-10-21T22:36:09.027Z,30.10
2018-10-21T22:38:13.280Z,31.10
2018-10-21T22:40:17.451Z,32.87
2018-10-21T22:42:21.722Z,30.43
2018-10-21T22:44:25.869Z,33.50
2018-10-21T22:46:30.171Z,23.17
2018-10-21T22:48:34.346Z,32.93
2018-10-21T22:50:38.524Z,35.90
2018-10-21T22:52:43.303Z,29.50
2018-10-21T22:54:47.500Z,38.57
2018-10-21T22:56:51.744Z,36.83
2018-10-21T22:58:55.918Z,40.77
2018-10-21T23:01:00.163Z,37.93
2018-10-21T23:03:04.426Z,39.60
2018-10-21T23:05:09.231Z,39.33
2018-10-21T23:07:13.543Z,33.40
2018-10-21T23:09:17.746Z,38.77
2018-10-21T23:11:22.011Z,33.30
2018-10-21T23:13:26.222Z,36.53
2018-10-21T23:15:30.505Z,31.83
2018-10-21T23:17:34.719Z,36.60
2018-10-21T23:19:49.078Z,33.23
2018-10-21T23:21:53.326Z,27.17
2018-10-21T23:23:57.556Z,39.37
2018-10-21T23:26:01.799Z,36.87
2018-10-21T23:28:06.093Z,38.93
2018-10-21T23:30:10.397Z,38.37
2018-10-21T23:32:14.601Z,39.57
2018-10-21T23:34:18.880Z,40.97
2018-10-21T23:36:23.279Z,35.97
2018-10-21T23:38:27.497Z,35.53
2018-10-21T23:40:31.775Z,21.60
2018-10-21T23:42:36.013Z,25.97
2018-10-21T23:44:40.233Z,33.03
2018-10-21T23:46:44.436Z,27.67
2018-10-21T23:48:48.660Z,38.60
2018-10-21T23:50:52.915Z,39.07
2018-10-21T23:52:57.117Z,40.07
2018-10-21T23:55:01.275Z,37.70
2018-10-21T23:57:06.627Z,38.23
2018-10-21T23:59:11.750Z,38.70
